sensor_id;sensor_type;location;lat;lon;timestamp;P1;durP1;ratioP1;P2;durP2;ratioP2
66169;SDS011;52971;44.024;20.456;2022-08-14T00:00:46;20.85;;;18.67;;
66169;SDS011;52971;44.024;20.456;2022-08-14T00:03:24;19.38;;;17.58;;
66169;SDS011;52971;44.024;20.456;2022-08-14T00:05:54;21.92;;;19.83;;
66169;SDS011;52971;44.024;20.456;2022-08-14T00:08:20;19.15;;;17.30;;
66169;SDS011;52971;44.024;20.456;2022-08-14T00:10:46;19.20;;;17.50;;
66169;SDS011;52971;44.024;20.456;2022-08-14T00:13:12;17.85;;;16.30;;
66169;SDS011;52971;44.024;20.456;2022-08-14T00:15:39;19.40;;;17.60;;
66169;SDS011;52971;44.024;20.456;2022-08-14T00:18:08;18.42;;;16.73;;
66169;SDS011;52971;44.024;20.456;2022-08-14T00:20:37;18.27;;;16.48;;
66169;SDS011;52971;44.024;20.456;2022-08-14T00:23:05;20.27;;;18.27;;
66169;SDS011;52971;44.024;20.456;2022-08-14T00:25:32;19.50;;;17.70;;
66169;SDS011;52971;44.024;20.456;2022-08-14T00:27:58;17.98;;;16.23;;
66169;SDS011;52971;44.024;20.456;2022-08-14T00:30:24;18.42;;;16.55;;
66169;SDS011;52971;44.024;20.456;2022-08-14T00:32:49;19.17;;;17.33;;
66169;SDS011;52971;44.024;20.456;2022-08-14T00:35:15;19.60;;;17.85;;
66169;SDS011;52971;44.024;20.456;2022-08-14T00:37:42;18.67;;;16.98;;
66169;SDS011;52971;44.024;20.456;2022-08-14T00:40:09;17.90;;;16.10;;
66169;SDS011;52971;44.024;20.456;2022-08-14T00:42:38;19.33;;;17.02;;
66169;SDS011;52971;44.024;20.456;2022-08-14T00:45:05;17.65;;;15.75;;
66169;SDS011;52971;44.024;20.456;2022-08-14T00:47:33;16.83;;;15.27;;
66169;SDS011;52971;44.024;20.456;2022-08-14T00:49:59;16.50;;;14.90;;
66169;SDS011;52971;44.024;20.456;2022-08-14T00:52:26;16.95;;;15.13;;
66169;SDS011;52971;44.024;20.456;2022-08-14T00:54:52;16.92;;;15.30;;
66169;SDS011;52971;44.024;20.456;2022-08-14T00:57:22;17.13;;;15.55;;
66169;SDS011;52971;44.024;20.456;2022-08-14T00:59:49;15.70;;;14.27;;
66169;SDS011;52971;44.024;20.456;2022-08-14T01:02:16;14.68;;;13.25;;
66169;SDS011;52971;44.024;20.456;2022-08-14T01:04:44;18.13;;;15.00;;
66169;SDS011;52971;44.024;20.456;2022-08-14T01:07:11;14.90;;;12.77;;
66169;SDS011;52971;44.024;20.456;2022-08-14T01:09:42;15.82;;;14.23;;
66169;SDS011;52971;44.024;20.456;2022-08-14T01:12:08;16.23;;;14.63;;
66169;SDS011;52971;44.024;20.456;2022-08-14T01:14:35;17.45;;;15.05;;
66169;SDS011;52971;44.024;20.456;2022-08-14T01:17:01;14.68;;;13.38;;
66169;SDS011;52971;44.024;20.456;2022-08-14T01:19:27;14.00;;;12.77;;
66169;SDS011;52971;44.024;20.456;2022-08-14T01:22:11;12.85;;;11.75;;
66169;SDS011;52971;44.024;20.456;2022-08-14T01:24:36;12.27;;;11.23;;
66169;SDS011;52971;44.024;20.456;2022-08-14T01:27:02;14.60;;;13.30;;
66169;SDS011;52971;44.024;20.456;2022-08-14T01:29:29;12.50;;;11.40;;
66169;SDS011;52971;44.024;20.456;2022-08-14T01:32:02;12.20;;;11.20;;
66169;SDS011;52971;44.024;20.456;2022-08-14T01:34:29;11.27;;;10.27;;
66169;SDS011;52971;44.024;20.456;2022-08-14T01:36:57;11.88;;;10.77;;
66169;SDS011;52971;44.024;20.456;2022-08-14T01:39:24;13.00;;;11.82;;
66169;SDS011;52971;44.024;20.456;2022-08-14T01:41:50;11.98;;;10.90;;
66169;SDS011;52971;44.024;20.456;2022-08-14T01:44:25;12.60;;;11.48;;
66169;SDS011;52971;44.024;20.456;2022-08-14T01:46:56;12.63;;;11.57;;
66169;SDS011;52971;44.024;20.456;2022-08-14T01:49:23;11.90;;;10.82;;
66169;SDS011;52971;44.024;20.456;2022-08-14T01:51:49;12.25;;;11.15;;
66169;SDS011;52971;44.024;20.456;2022-08-14T01:54:20;12.77;;;11.68;;
66169;SDS011;52971;44.024;20.456;2022-08-14T01:56:50;12.05;;;10.93;;
66169;SDS011;52971;44.024;20.456;2022-08-14T01:59:20;11.30;;;10.32;;
66169;SDS011;52971;44.024;20.456;2022-08-14T02:01:46;12.18;;;11.10;;
66169;SDS011;52971;44.024;20.456;2022-08-14T02:04:15;13.27;;;11.98;;
66169;SDS011;52971;44.024;20.456;2022-08-14T02:06:42;11.98;;;10.93;;
66169;SDS011;52971;44.024;20.456;2022-08-14T02:09:08;11.75;;;10.75;;
66169;SDS011;52971;44.024;20.456;2022-08-14T02:11:34;12.77;;;11.68;;
66169;SDS011;52971;44.024;20.456;2022-08-14T02:14:01;12.68;;;11.48;;
66169;SDS011;52971;44.024;20.456;2022-08-14T02:16:32;13.00;;;11.80;;
66169;SDS011;52971;44.024;20.456;2022-08-14T02:19:36;12.20;;;11.00;;
66169;SDS011;52971;44.024;20.456;2022-08-14T02:21:56;13.13;;;11.93;;
66169;SDS011;52971;44.024;20.456;2022-08-14T02:24:24;13.02;;;11.73;;
66169;SDS011;52971;44.024;20.456;2022-08-14T02:26:53;12.63;;;11.63;;
66169;SDS011;52971;44.024;20.456;2022-08-14T02:29:20;12.27;;;11.27;;
66169;SDS011;52971;44.024;20.456;2022-08-14T02:31:48;12.68;;;11.57;;
66169;SDS011;52971;44.024;20.456;2022-08-14T02:34:17;14.25;;;12.77;;
66169;SDS011;52971;44.024;20.456;2022-08-14T02:36:46;13.00;;;11.93;;
66169;SDS011;52971;44.024;20.456;2022-08-14T02:39:13;13.45;;;12.13;;
66169;SDS011;52971;44.024;20.456;2022-08-14T02:41:39;13.23;;;11.93;;
66169;SDS011;52971;44.024;20.456;2022-08-14T02:44:06;13.35;;;12.15;;
66169;SDS011;52971;44.024;20.456;2022-08-14T02:46:34;13.65;;;12.25;;
66169;SDS011;52971;44.024;20.456;2022-08-14T02:49:03;13.57;;;12.35;;
66169;SDS011;52971;44.024;20.456;2022-08-14T02:51:30;13.32;;;12.13;;
66169;SDS011;52971;44.024;20.456;2022-08-14T02:53:56;13.77;;;12.55;;
66169;SDS011;52971;44.024;20.456;2022-08-14T02:56:22;14.68;;;13.27;;
66169;SDS011;52971;44.024;20.456;2022-08-14T02:58:51;13.82;;;12.63;;
66169;SDS011;52971;44.024;20.456;2022-08-14T03:01:19;13.82;;;12.45;;
66169;SDS011;52971;44.024;20.456;2022-08-14T03:03:47;14.02;;;12.65;;
66169;SDS011;52971;44.024;20.456;2022-08-14T03:06:14;13.27;;;11.98;;
66169;SDS011;52971;44.024;20.456;2022-08-14T03:08:41;13.55;;;12.35;;
66169;SDS011;52971;44.024;20.456;2022-08-14T03:11:08;13.45;;;12.15;;
66169;SDS011;52971;44.024;20.456;2022-08-14T03:13:36;13.88;;;12.57;;
66169;SDS011;52971;44.024;20.456;2022-08-14T03:16:07;12.80;;;11.50;;
66169;SDS011;52971;44.024;20.456;2022-08-14T03:18:36;13.18;;;11.88;;
66169;SDS011;52971;44.024;20.456;2022-08-14T03:21:05;12.10;;;11.07;;
66169;SDS011;52971;44.024;20.456;2022-08-14T03:23:37;12.48;;;11.35;;
66169;SDS011;52971;44.024;20.456;2022-08-14T03:26:04;14.60;;;13.30;;
66169;SDS011;52971;44.024;20.456;2022-08-14T03:28:32;15.73;;;14.18;;
66169;SDS011;52971;44.024;20.456;2022-08-14T03:30:58;15.20;;;13.65;;
66169;SDS011;52971;44.024;20.456;2022-08-14T03:33:24;14.07;;;12.88;;
66169;SDS011;52971;44.024;20.456;2022-08-14T03:35:51;16.17;;;13.13;;
66169;SDS011;52971;44.024;20.456;2022-08-14T03:38:17;13.98;;;12.43;;
66169;SDS011;52971;44.024;20.456;2022-08-14T03:40:43;14.57;;;13.07;;
66169;SDS011;52971;44.024;20.456;2022-08-14T03:43:11;14.20;;;12.75;;
66169;SDS011;52971;44.024;20.456;2022-08-14T03:45:38;14.05;;;12.75;;
66169;SDS011;52971;44.024;20.456;2022-08-14T03:48:11;14.43;;;13.13;;
66169;SDS011;52971;44.024;20.456;2022-08-14T03:50:43;14.48;;;12.98;;
66169;SDS011;52971;44.024;20.456;2022-08-14T03:53:13;13.55;;;12.35;;
66169;SDS011;52971;44.024;20.456;2022-08-14T03:55:42;15.48;;;14.05;;
66169;SDS011;52971;44.024;20.456;2022-08-14T03:58:08;15.45;;;13.85;;
66169;SDS011;52971;44.024;20.456;2022-08-14T04:00:35;16.80;;;15.00;;
66169;SDS011;52971;44.024;20.456;2022-08-14T04:03:02;16.88;;;15.25;;
66169;SDS011;52971;44.024;20.456;2022-08-14T04:05:30;17.23;;;15.45;;
66169;SDS011;52971;44.024;20.456;2022-08-14T04:07:56;18.45;;;16.63;;
66169;SDS011;52971;44.024;20.456;2022-08-14T04:10:22;19.58;;;17.60;;
66169;SDS011;52971;44.024;20.456;2022-08-14T04:12:48;20.17;;;18.08;;
66169;SDS011;52971;44.024;20.456;2022-08-14T04:15:14;20.70;;;18.55;;
66169;SDS011;52971;44.024;20.456;2022-08-14T04:17:39;19.73;;;17.65;;
66169;SDS011;52971;44.024;20.456;2022-08-14T04:20:08;20.33;;;18.23;;
66169;SDS011;52971;44.024;20.456;2022-08-14T04:22:34;20.77;;;18.67;;
66169;SDS011;52971;44.024;20.456;2022-08-14T04:25:00;21.40;;;19.25;;
66169;SDS011;52971;44.024;20.456;2022-08-14T04:27:26;20.60;;;18.55;;
66169;SDS011;52971;44.024;20.456;2022-08-14T04:29:52;21.02;;;18.77;;
66169;SDS011;52971;44.024;20.456;2022-08-14T04:32:18;21.30;;;19.02;;
66169;SDS011;52971;44.024;20.456;2022-08-14T04:34:44;22.70;;;20.27;;
66169;SDS011;52971;44.024;20.456;2022-08-14T04:37:10;20.65;;;18.15;;
66169;SDS011;52971;44.024;20.456;2022-08-14T04:39:54;22.50;;;19.35;;
66169;SDS011;52971;44.024;20.456;2022-08-14T04:42:39;22.70;;;20.27;;
66169;SDS011;52971;44.024;20.456;2022-08-14T04:45:24;22.23;;;19.83;;
66169;SDS011;52971;44.024;20.456;2022-08-14T04:48:00;21.70;;;19.60;;
66169;SDS011;52971;44.024;20.456;2022-08-14T04:53:16;19.13;;;17.20;;
66169;SDS011;52971;44.024;20.456;2022-08-14T04:55:44;19.85;;;17.95;;
66169;SDS011;52971;44.024;20.456;2022-08-14T04:58:24;21.60;;;19.50;;
66169;SDS011;52971;44.024;20.456;2022-08-14T05:00:52;21.50;;;19.30;;
66169;SDS011;52971;44.024;20.456;2022-08-14T05:03:20;18.77;;;16.98;;
66169;SDS011;52971;44.024;20.456;2022-08-14T05:05:47;19.35;;;17.45;;
66169;SDS011;52971;44.024;20.456;2022-08-14T05:08:17;20.85;;;18.77;;
66169;SDS011;52971;44.024;20.456;2022-08-14T05:10:54;18.73;;;16.15;;
66169;SDS011;52971;44.024;20.456;2022-08-14T05:13:23;19.63;;;17.63;;
66169;SDS011;52971;44.024;20.456;2022-08-14T05:15:50;20.17;;;16.88;;
66169;SDS011;52971;44.024;20.456;2022-08-14T05:18:21;18.05;;;16.23;;
66169;SDS011;52971;44.024;20.456;2022-08-14T05:20:49;17.88;;;16.00;;
66169;SDS011;52971;44.024;20.456;2022-08-14T05:23:19;17.52;;;15.82;;
66169;SDS011;52971;44.024;20.456;2022-08-14T05:25:47;17.75;;;16.10;;
66169;SDS011;52971;44.024;20.456;2022-08-14T05:30:43;17.50;;;15.73;;
66169;SDS011;52971;44.024;20.456;2022-08-14T05:33:10;17.02;;;15.32;;
66169;SDS011;52971;44.024;20.456;2022-08-14T05:35:37;17.42;;;15.80;;
66169;SDS011;52971;44.024;20.456;2022-08-14T05:38:07;17.10;;;15.30;;
66169;SDS011;52971;44.024;20.456;2022-08-14T05:40:33;16.80;;;15.18;;
66169;SDS011;52971;44.024;20.456;2022-08-14T05:42:59;15.45;;;14.10;;
66169;SDS011;52971;44.024;20.456;2022-08-14T05:45:25;15.88;;;14.45;;
66169;SDS011;52971;44.024;20.456;2022-08-14T05:47:51;15.35;;;13.77;;
66169;SDS011;52971;44.024;20.456;2022-08-14T05:50:16;14.35;;;12.95;;
66169;SDS011;52971;44.024;20.456;2022-08-14T05:52:42;15.30;;;13.90;;
66169;SDS011;52971;44.024;20.456;2022-08-14T05:55:08;14.73;;;13.30;;
66169;SDS011;52971;44.024;20.456;2022-08-14T05:57:57;15.40;;;14.05;;
66169;SDS011;52971;44.024;20.456;2022-08-14T06:00:23;14.02;;;12.73;;
66169;SDS011;52971;44.024;20.456;2022-08-14T06:02:50;12.98;;;11.88;;
66169;SDS011;52971;44.024;20.456;2022-08-14T06:05:16;13.75;;;12.60;;
66169;SDS011;52971;44.024;20.456;2022-08-14T06:07:41;14.13;;;12.90;;
66169;SDS011;52971;44.024;20.456;2022-08-14T06:10:08;12.50;;;11.30;;
66169;SDS011;52971;44.024;20.456;2022-08-14T06:12:34;13.88;;;12.57;;
66169;SDS011;52971;44.024;20.456;2022-08-14T06:15:00;13.55;;;12.18;;
66169;SDS011;52971;44.024;20.456;2022-08-14T06:17:26;14.40;;;13.10;;
66169;SDS011;52971;44.024;20.456;2022-08-14T06:19:52;13.30;;;12.02;;
66169;SDS011;52971;44.024;20.456;2022-08-14T06:22:17;11.75;;;10.60;;
66169;SDS011;52971;44.024;20.456;2022-08-14T06:24:43;13.10;;;11.80;;
66169;SDS011;52971;44.024;20.456;2022-08-14T06:27:08;11.90;;;10.80;;
66169;SDS011;52971;44.024;20.456;2022-08-14T06:29:35;12.30;;;11.02;;
66169;SDS011;52971;44.024;20.456;2022-08-14T06:32:02;12.95;;;11.75;;
66169;SDS011;52971;44.024;20.456;2022-08-14T06:34:28;12.05;;;11.05;;
66169;SDS011;52971;44.024;20.456;2022-08-14T06:36:53;11.57;;;10.57;;
66169;SDS011;52971;44.024;20.456;2022-08-14T06:39:24;10.35;;;9.45;;
66169;SDS011;52971;44.024;20.456;2022-08-14T06:41:49;11.23;;;10.25;;
66169;SDS011;52971;44.024;20.456;2022-08-14T06:44:15;11.45;;;10.35;;
66169;SDS011;52971;44.024;20.456;2022-08-14T06:46:41;10.23;;;9.32;;
66169;SDS011;52971;44.024;20.456;2022-08-14T06:49:07;9.13;;;8.23;;
66169;SDS011;52971;44.024;20.456;2022-08-14T06:51:32;9.85;;;8.95;;
66169;SDS011;52971;44.024;20.456;2022-08-14T06:53:59;9.80;;;8.90;;
66169;SDS011;52971;44.024;20.456;2022-08-14T06:56:25;8.55;;;7.85;;
66169;SDS011;52971;44.024;20.456;2022-08-14T06:58:51;8.73;;;8.02;;
66169;SDS011;52971;44.024;20.456;2022-08-14T07:01:16;9.77;;;8.93;;
66169;SDS011;52971;44.024;20.456;2022-08-14T07:04:00;19.90;;;15.87;;
66169;SDS011;52971;44.024;20.456;2022-08-14T07:06:44;17.80;;;16.13;;
66169;SDS011;52971;44.024;20.456;2022-08-14T07:09:10;9.05;;;8.35;;
66169;SDS011;52971;44.024;20.456;2022-08-14T07:11:35;8.60;;;7.90;;
66169;SDS011;52971;44.024;20.456;2022-08-14T07:14:02;9.45;;;8.55;;
66169;SDS011;52971;44.024;20.456;2022-08-14T07:16:28;7.40;;;6.80;;
66169;SDS011;52971;44.024;20.456;2022-08-14T07:18:54;10.88;;;9.98;;
66169;SDS011;52971;44.024;20.456;2022-08-14T07:21:20;7.10;;;6.60;;
66169;SDS011;52971;44.024;20.456;2022-08-14T07:23:46;5.95;;;5.35;;
66169;SDS011;52971;44.024;20.456;2022-08-14T07:26:11;8.95;;;8.15;;
66169;SDS011;52971;44.024;20.456;2022-08-14T07:28:38;5.80;;;5.30;;
66169;SDS011;52971;44.024;20.456;2022-08-14T07:31:05;5.65;;;5.20;;
66169;SDS011;52971;44.024;20.456;2022-08-14T07:33:37;6.47;;;5.95;;
66169;SDS011;52971;44.024;20.456;2022-08-14T07:36:05;6.90;;;6.30;;
66169;SDS011;52971;44.024;20.456;2022-08-14T07:38:33;6.22;;;5.70;;
66169;SDS011;52971;44.024;20.456;2022-08-14T07:41:00;5.43;;;5.03;;
66169;SDS011;52971;44.024;20.456;2022-08-14T07:43:25;5.40;;;4.97;;
66169;SDS011;52971;44.024;20.456;2022-08-14T07:45:51;5.55;;;5.15;;
66169;SDS011;52971;44.024;20.456;2022-08-14T07:48:17;5.78;;;4.97;;
66169;SDS011;52971;44.024;20.456;2022-08-14T07:50:44;4.80;;;4.40;;
66169;SDS011;52971;44.024;20.456;2022-08-14T07:53:11;4.40;;;4.10;;
66169;SDS011;52971;44.024;20.456;2022-08-14T07:55:38;5.20;;;4.72;;
66169;SDS011;52971;44.024;20.456;2022-08-14T07:58:05;6.75;;;6.25;;
66169;SDS011;52971;44.024;20.456;2022-08-14T08:00:30;7.38;;;6.78;;
66169;SDS011;52971;44.024;20.456;2022-08-14T08:02:57;7.45;;;6.88;;
66169;SDS011;52971;44.024;20.456;2022-08-14T08:05:23;8.32;;;7.35;;
66169;SDS011;52971;44.024;20.456;2022-08-14T08:07:50;8.90;;;8.20;;
66169;SDS011;52971;44.024;20.456;2022-08-14T08:10:17;9.38;;;8.48;;
66169;SDS011;52971;44.024;20.456;2022-08-14T08:15:32;9.43;;;8.63;;
66169;SDS011;52971;44.024;20.456;2022-08-14T08:18:02;10.55;;;9.75;;
66169;SDS011;52971;44.024;20.456;2022-08-14T08:20:32;9.75;;;8.95;;
66169;SDS011;52971;44.024;20.456;2022-08-14T08:23:02;8.95;;;8.25;;
66169;SDS011;52971;44.024;20.456;2022-08-14T08:25:31;9.68;;;8.85;;
66169;SDS011;52971;44.024;20.456;2022-08-14T08:28:03;8.68;;;7.88;;
66169;SDS011;52971;44.024;20.456;2022-08-14T08:30:33;7.88;;;7.20;;
66169;SDS011;52971;44.024;20.456;2022-08-14T08:33:02;8.63;;;7.93;;
66169;SDS011;52971;44.024;20.456;2022-08-14T08:35:29;8.43;;;7.82;;
66169;SDS011;52971;44.024;20.456;2022-08-14T08:38:09;8.65;;;7.95;;
66169;SDS011;52971;44.024;20.456;2022-08-14T08:40:39;10.57;;;9.75;;
66169;SDS011;52971;44.024;20.456;2022-08-14T08:43:07;16.67;;;14.70;;
66169;SDS011;52971;44.024;20.456;2022-08-14T08:48:06;12.57;;;11.40;;
66169;SDS011;52971;44.024;20.456;2022-08-14T08:50:33;13.93;;;12.38;;
66169;SDS011;52971;44.024;20.456;2022-08-14T08:53:03;10.70;;;9.80;;
66169;SDS011;52971;44.024;20.456;2022-08-14T08:55:36;13.32;;;11.98;;
66169;SDS011;52971;44.024;20.456;2022-08-14T09:00:32;11.15;;;10.25;;
66169;SDS011;52971;44.024;20.456;2022-08-14T09:03:06;12.23;;;11.13;;
66169;SDS011;52971;44.024;20.456;2022-08-14T09:05:34;16.33;;;12.20;;
66169;SDS011;52971;44.024;20.456;2022-08-14T09:08:11;12.45;;;11.35;;
66169;SDS011;52971;44.024;20.456;2022-08-14T09:10:41;12.85;;;11.65;;
66169;SDS011;52971;44.024;20.456;2022-08-14T09:13:08;13.32;;;12.15;;
66169;SDS011;52971;44.024;20.456;2022-08-14T09:15:37;13.70;;;12.60;;
66169;SDS011;52971;44.024;20.456;2022-08-14T09:18:07;14.75;;;13.35;;
66169;SDS011;52971;44.024;20.456;2022-08-14T09:20:34;14.38;;;13.15;;
66169;SDS011;52971;44.024;20.456;2022-08-14T09:23:02;14.80;;;13.40;;
66169;SDS011;52971;44.024;20.456;2022-08-14T09:25:28;14.65;;;13.35;;
66169;SDS011;52971;44.024;20.456;2022-08-14T09:27:54;15.52;;;14.07;;
66169;SDS011;52971;44.024;20.456;2022-08-14T09:30:19;15.98;;;14.38;;
66169;SDS011;52971;44.024;20.456;2022-08-14T09:33:01;15.30;;;13.88;;
66169;SDS011;52971;44.024;20.456;2022-08-14T09:41:12;16.27;;;14.77;;
66169;SDS011;52971;44.024;20.456;2022-08-14T09:44:04;14.80;;;13.50;;
66169;SDS011;52971;44.024;20.456;2022-08-14T09:46:32;14.80;;;13.65;;
66169;SDS011;52971;44.024;20.456;2022-08-14T09:49:03;14.20;;;12.88;;
66169;SDS011;52971;44.024;20.456;2022-08-14T09:51:30;13.00;;;11.90;;
66169;SDS011;52971;44.024;20.456;2022-08-14T09:54:00;15.20;;;13.70;;
66169;SDS011;52971;44.024;20.456;2022-08-14T09:56:52;15.93;;;14.52;;
66169;SDS011;52971;44.024;20.456;2022-08-14T09:59:17;15.70;;;14.15;;
66169;SDS011;52971;44.024;20.456;2022-08-14T10:01:47;14.27;;;13.05;;
66169;SDS011;52971;44.024;20.456;2022-08-14T10:04:17;14.05;;;12.80;;
66169;SDS011;52971;44.024;20.456;2022-08-14T10:06:46;10.52;;;9.73;;
66169;SDS011;52971;44.024;20.456;2022-08-14T10:09:12;11.93;;;10.85;;
66169;SDS011;52971;44.024;20.456;2022-08-14T10:11:38;12.27;;;11.18;;
66169;SDS011;52971;44.024;20.456;2022-08-14T10:14:12;12.25;;;11.05;;
66169;SDS011;52971;44.024;20.456;2022-08-14T10:16:43;11.43;;;10.00;;
66169;SDS011;52971;44.024;20.456;2022-08-14T10:19:11;11.07;;;10.05;;
66169;SDS011;52971;44.024;20.456;2022-08-14T10:21:39;10.13;;;9.27;;
66169;SDS011;52971;44.024;20.456;2022-08-14T10:24:10;9.82;;;9.02;;
66169;SDS011;52971;44.024;20.456;2022-08-14T10:26:37;9.40;;;8.60;;
66169;SDS011;52971;44.024;20.456;2022-08-14T10:29:09;10.57;;;9.45;;
66169;SDS011;52971;44.024;20.456;2022-08-14T10:31:37;10.38;;;9.48;;
66169;SDS011;52971;44.024;20.456;2022-08-14T10:34:04;9.70;;;8.90;;
66169;SDS011;52971;44.024;20.456;2022-08-14T10:36:35;10.23;;;9.32;;
66169;SDS011;52971;44.024;20.456;2022-08-14T10:39:05;9.23;;;8.52;;
66169;SDS011;52971;44.024;20.456;2022-08-14T10:41:39;9.70;;;8.90;;
66169;SDS011;52971;44.024;20.456;2022-08-14T10:44:40;9.88;;;8.40;;
66169;SDS011;52971;44.024;20.456;2022-08-14T10:47:03;10.10;;;9.25;;
66169;SDS011;52971;44.024;20.456;2022-08-14T10:49:34;9.88;;;8.95;;
66169;SDS011;52971;44.024;20.456;2022-08-14T10:52:03;10.45;;;9.55;;
66169;SDS011;52971;44.024;20.456;2022-08-14T10:54:37;11.77;;;10.68;;
66169;SDS011;52971;44.024;20.456;2022-08-14T11:07:57;9.33;;;8.43;;
66169;SDS011;52971;44.024;20.456;2022-08-14T11:13:23;12.10;;;10.93;;
66169;SDS011;52971;44.024;20.456;2022-08-14T11:15:52;10.32;;;9.40;;
66169;SDS011;52971;44.024;20.456;2022-08-14T11:18:20;45.03;;;32.65;;
66169;SDS011;52971;44.024;20.456;2022-08-14T11:20:51;10.50;;;9.48;;
66169;SDS011;52971;44.024;20.456;2022-08-14T11:23:20;9.07;;;8.18;;
66169;SDS011;52971;44.024;20.456;2022-08-14T11:26:00;10.43;;;9.63;;
66169;SDS011;52971;44.024;20.456;2022-08-14T11:28:28;16.35;;;13.00;;
66169;SDS011;52971;44.024;20.456;2022-08-14T11:30:57;13.70;;;12.27;;
66169;SDS011;52971;44.024;20.456;2022-08-14T11:33:27;9.48;;;8.63;;
66169;SDS011;52971;44.024;20.456;2022-08-14T11:36:00;10.05;;;8.70;;
66169;SDS011;52971;44.024;20.456;2022-08-14T11:38:36;15.02;;;10.70;;
66169;SDS011;52971;44.024;20.456;2022-08-14T11:41:06;13.55;;;11.13;;
66169;SDS011;52971;44.024;20.456;2022-08-14T11:43:42;12.43;;;11.30;;
66169;SDS011;52971;44.024;20.456;2022-08-14T11:46:09;17.77;;;15.95;;
66169;SDS011;52971;44.024;20.456;2022-08-14T11:48:44;13.60;;;12.30;;
66169;SDS011;52971;44.024;20.456;2022-08-14T11:51:14;13.98;;;12.57;;
66169;SDS011;52971;44.024;20.456;2022-08-14T11:53:42;14.63;;;13.05;;
66169;SDS011;52971;44.024;20.456;2022-08-14T11:56:14;14.07;;;12.60;;
66169;SDS011;52971;44.024;20.456;2022-08-14T11:58:40;15.43;;;12.68;;
66169;SDS011;52971;44.024;20.456;2022-08-14T12:01:06;18.67;;;16.77;;
66169;SDS011;52971;44.024;20.456;2022-08-14T12:03:40;18.60;;;16.70;;
66169;SDS011;52971;44.024;20.456;2022-08-14T12:06:15;16.63;;;14.93;;
66169;SDS011;52971;44.024;20.456;2022-08-14T12:08:43;15.50;;;14.05;;
66169;SDS011;52971;44.024;20.456;2022-08-14T12:11:11;14.43;;;13.15;;
66169;SDS011;52971;44.024;20.456;2022-08-14T12:13:38;15.35;;;13.95;;
66169;SDS011;52971;44.024;20.456;2022-08-14T12:16:06;13.98;;;12.75;;
66169;SDS011;52971;44.024;20.456;2022-08-14T12:18:39;20.10;;;16.63;;
66169;SDS011;52971;44.024;20.456;2022-08-14T12:21:19;16.30;;;14.70;;
66169;SDS011;52971;44.024;20.456;2022-08-14T12:24:09;12.05;;;10.93;;
66169;SDS011;52971;44.024;20.456;2022-08-14T12:26:34;14.38;;;12.73;;
66169;SDS011;52971;44.024;20.456;2022-08-14T12:29:13;19.95;;;16.48;;
66169;SDS011;52971;44.024;20.456;2022-08-14T12:31:40;12.73;;;11.02;;
66169;SDS011;52971;44.024;20.456;2022-08-14T12:34:07;22.20;;;17.70;;
66169;SDS011;52971;44.024;20.456;2022-08-14T12:36:35;32.03;;;19.95;;
66169;SDS011;52971;44.024;20.456;2022-08-14T12:39:03;11.60;;;10.45;;
66169;SDS011;52971;44.024;20.456;2022-08-14T12:41:47;25.65;;;19.15;;
66169;SDS011;52971;44.024;20.456;2022-08-14T12:44:39;11.25;;;10.05;;
66169;SDS011;52971;44.024;20.456;2022-08-14T12:47:11;9.75;;;8.85;;
66169;SDS011;52971;44.024;20.456;2022-08-14T12:49:47;10.48;;;9.50;;
66169;SDS011;52971;44.024;20.456;2022-08-14T12:52:16;14.38;;;12.98;;
66169;SDS011;52971;44.024;20.456;2022-08-14T12:54:58;12.38;;;11.07;;
66169;SDS011;52971;44.024;20.456;2022-08-14T12:57:31;11.18;;;10.00;;
66169;SDS011;52971;44.024;20.456;2022-08-14T13:00:06;12.15;;;11.05;;
66169;SDS011;52971;44.024;20.456;2022-08-14T13:02:44;14.40;;;12.98;;
66169;SDS011;52971;44.024;20.456;2022-08-14T13:05:14;10.57;;;9.68;;
66169;SDS011;52971;44.024;20.456;2022-08-14T13:07:41;12.75;;;10.70;;
66169;SDS011;52971;44.024;20.456;2022-08-14T13:10:10;12.35;;;11.10;;
66169;SDS011;52971;44.024;20.456;2022-08-14T13:12:40;11.82;;;10.10;;
66169;SDS011;52971;44.024;20.456;2022-08-14T13:15:07;45.10;;;30.83;;
66169;SDS011;52971;44.024;20.456;2022-08-14T13:17:46;12.85;;;11.63;;
66169;SDS011;52971;44.024;20.456;2022-08-14T13:20:14;8.50;;;7.70;;
66169;SDS011;52971;44.024;20.456;2022-08-14T13:22:42;6.85;;;6.30;;
66169;SDS011;52971;44.024;20.456;2022-08-14T13:25:16;7.47;;;6.88;;
66169;SDS011;52971;44.024;20.456;2022-08-14T13:27:44;7.03;;;6.22;;
66169;SDS011;52971;44.024;20.456;2022-08-14T13:30:12;6.30;;;5.80;;
66169;SDS011;52971;44.024;20.456;2022-08-14T13:32:39;7.00;;;6.40;;
66169;SDS011;52971;44.024;20.456;2022-08-14T13:35:08;7.88;;;7.18;;
66169;SDS011;52971;44.024;20.456;2022-08-14T13:37:34;7.18;;;6.57;;
66169;SDS011;52971;44.024;20.456;2022-08-14T13:39:59;8.18;;;6.43;;
66169;SDS011;52971;44.024;20.456;2022-08-14T13:42:25;7.20;;;6.53;;
66169;SDS011;52971;44.024;20.456;2022-08-14T13:44:52;6.75;;;6.15;;
66169;SDS011;52971;44.024;20.456;2022-08-14T13:47:20;7.95;;;7.25;;
66169;SDS011;52971;44.024;20.456;2022-08-14T13:49:48;6.07;;;5.60;;
66169;SDS011;52971;44.024;20.456;2022-08-14T13:52:16;7.18;;;5.75;;
66169;SDS011;52971;44.024;20.456;2022-08-14T13:54:44;6.20;;;5.70;;
66169;SDS011;52971;44.024;20.456;2022-08-14T13:57:12;7.05;;;6.45;;
66169;SDS011;52971;44.024;20.456;2022-08-14T13:59:42;8.70;;;7.35;;
66169;SDS011;52971;44.024;20.456;2022-08-14T14:02:11;7.00;;;6.40;;
66169;SDS011;52971;44.024;20.456;2022-08-14T14:04:39;8.77;;;7.88;;
66169;SDS011;52971;44.024;20.456;2022-08-14T14:07:07;6.85;;;6.25;;
66169;SDS011;52971;44.024;20.456;2022-08-14T14:09:43;7.63;;;7.03;;
66169;SDS011;52971;44.024;20.456;2022-08-14T14:12:11;7.72;;;7.13;;
66169;SDS011;52971;44.024;20.456;2022-08-14T14:14:38;6.82;;;6.20;;
66169;SDS011;52971;44.024;20.456;2022-08-14T14:17:10;7.20;;;6.50;;
66169;SDS011;52971;44.024;20.456;2022-08-14T14:19:41;8.73;;;7.88;;
66169;SDS011;52971;44.024;20.456;2022-08-14T14:22:11;7.22;;;6.63;;
66169;SDS011;52971;44.024;20.456;2022-08-14T14:24:39;7.60;;;6.82;;
66169;SDS011;52971;44.024;20.456;2022-08-14T14:27:04;7.40;;;6.70;;
66169;SDS011;52971;44.024;20.456;2022-08-14T14:29:31;7.75;;;7.05;;
66169;SDS011;52971;44.024;20.456;2022-08-14T14:31:58;8.15;;;7.35;;
66169;SDS011;52971;44.024;20.456;2022-08-14T14:34:26;6.95;;;6.40;;
66169;SDS011;52971;44.024;20.456;2022-08-14T14:36:53;8.25;;;7.53;;
66169;SDS011;52971;44.024;20.456;2022-08-14T14:39:20;7.47;;;6.85;;
66169;SDS011;52971;44.024;20.456;2022-08-14T14:41:50;7.32;;;6.72;;
66169;SDS011;52971;44.024;20.456;2022-08-14T14:44:17;8.65;;;7.25;;
66169;SDS011;52971;44.024;20.456;2022-08-14T14:46:49;8.00;;;7.20;;
66169;SDS011;52971;44.024;20.456;2022-08-14T14:49:15;7.78;;;7.10;;
66169;SDS011;52971;44.024;20.456;2022-08-14T14:51:43;7.28;;;6.68;;
66169;SDS011;52971;44.024;20.456;2022-08-14T14:54:10;8.57;;;6.57;;
66169;SDS011;52971;44.024;20.456;2022-08-14T14:56:38;8.15;;;7.47;;
66169;SDS011;52971;44.024;20.456;2022-08-14T14:59:04;11.10;;;9.98;;